LIRF/FCO METAR and TAF weather

Enter ICAO airport designator
Station Type Date Time Source
LIRF METAR 2020/07/12 18:20 UTC NOAA

LIRF 121820Z 27004KT 240V310 CAVOK 26/22 Q1015 NOSIG


Station Type Date Time Source
LIRF Decoded METAR 2020/07/12 18:20 UTC NOAA

Roma Fiumicino, Italy (LIRF) 41-48N 012-14E 3M
Jul 12, 2020 - 02:20 PM EDT / 2020.07.12 1820 UTC
Wind: from the W (270 degrees) at 5 MPH (4 KT) (direction variable):0
Visibility: greater than 7 mile(s):0
Temperature: 78 F (26 C)
Dew Point: 71 F (22 C)
Relative Humidity: 78%
Pressure (altimeter): 29.97 in. Hg (1015 hPa)
ob: LIRF 121820Z 27004KT 240V310 CAVOK 26/22 Q1015 NOSIG
cycle: 18

Station Type Date Time Source
LIRF TAF 2020/07/12 18:22 UTC NOAA

TAF LIRF 121700Z 1218/1324 29010KT CAVOK
BECMG 1218/1220 03008KT
BECMG 1308/1310 27012KT
TEMPO 1308/1314 SHRA
BECMG 1218/1220 VRBO5KT

Example: see airport list